createdAt,value
2018-08-13T00:01:17.425Z,60.40
2018-08-13T00:03:45.847Z,60.80
2018-08-13T00:06:14.120Z,61.00
2018-08-13T00:08:42.376Z,61.40
2018-08-13T00:11:10.609Z,61.60
2018-08-13T00:13:38.886Z,61.80
2018-08-13T00:16:07.304Z,62.00
2018-08-13T00:18:35.582Z,62.40
2018-08-13T00:21:03.861Z,62.20
2018-08-13T00:23:32.116Z,62.50
2018-08-13T00:26:01.042Z,62.60
2018-08-13T00:28:29.368Z,62.90
2018-08-13T00:30:57.594Z,62.90
2018-08-13T00:33:25.861Z,63.10
2018-08-13T00:35:54.141Z,63.30
2018-08-13T00:38:22.379Z,63.40
2018-08-13T00:40:50.600Z,63.40
2018-08-13T00:43:18.854Z,63.30
2018-08-13T00:45:47.110Z,63.40
2018-08-13T00:48:15.349Z,63.50
2018-08-13T00:50:43.747Z,64.00
2018-08-13T00:53:11.962Z,64.40
2018-08-13T00:55:40.235Z,65.30
2018-08-13T00:58:08.824Z,68.10
2018-08-13T01:00:37.079Z,73.70
2018-08-13T01:03:05.956Z,73.70
2018-08-13T01:05:34.192Z,64.70
2018-08-13T01:08:02.521Z,65.10
2018-08-13T01:10:31.075Z,66.20
2018-08-13T01:12:59.285Z,66.40
2018-08-13T01:15:27.540Z,66.90
2018-08-13T01:17:55.811Z,68.40
2018-08-13T01:20:24.009Z,67.70
2018-08-13T01:22:52.518Z,69.10
2018-08-13T01:25:21.238Z,67.50
2018-08-13T01:27:49.492Z,67.40
2018-08-13T01:30:18.764Z,67.40
2018-08-13T01:32:47.042Z,67.80
2018-08-13T01:35:15.327Z,69.40
2018-08-13T01:37:43.582Z,69.80
2018-08-13T01:40:12.561Z,69.60
2018-08-13T01:42:40.781Z,68.30
2018-08-13T01:45:10.381Z,69.60
2018-08-13T01:47:38.821Z,70.90
2018-08-13T01:50:08.869Z,71.30
2018-08-13T01:52:37.665Z,72.00
2018-08-13T01:55:07.257Z,71.70
2018-08-13T01:57:35.517Z,72.40
2018-08-13T02:00:05.115Z,71.90
2018-08-13T02:02:33.328Z,72.90
2018-08-13T02:05:01.611Z,73.10
2018-08-13T02:07:29.860Z,71.40
2018-08-13T02:09:58.158Z,70.90
2018-08-13T02:12:26.412Z,69.20
2018-08-13T02:14:54.671Z,68.00
2018-08-13T02:17:22.904Z,67.60
2018-08-13T02:19:51.108Z,67.00
2018-08-13T02:22:19.318Z,66.80
2018-08-13T02:24:47.616Z,66.70
2018-08-13T02:27:15.877Z,68.80
2018-08-13T02:29:44.081Z,66.80
2018-08-13T02:32:12.339Z,66.90
2018-08-13T02:37:08.584Z,66.00
2018-08-13T02:39:36.949Z,66.80
2018-08-13T02:42:05.193Z,66.60
2018-08-13T02:44:33.492Z,66.80
2018-08-13T02:47:01.739Z,66.90
2018-08-13T02:49:29.959Z,67.00
2018-08-13T02:51:58.207Z,66.80
2018-08-13T02:54:26.414Z,66.70
2018-08-13T02:56:54.664Z,67.10
2018-08-13T02:59:22.883Z,67.00
2018-08-13T03:01:51.126Z,66.70
2018-08-13T03:04:19.391Z,66.60
2018-08-13T03:06:47.661Z,67.10
2018-08-13T03:09:15.966Z,67.00
2018-08-13T03:11:44.502Z,66.70
2018-08-13T03:14:12.720Z,66.80
2018-08-13T03:16:41.001Z,66.70
2018-08-13T03:19:09.245Z,66.80
2018-08-13T03:21:37.629Z,66.70
2018-08-13T03:24:06.091Z,67.20
2018-08-13T03:26:34.325Z,67.40
2018-08-13T03:29:02.557Z,69.00
2018-08-13T03:31:30.806Z,70.30
2018-08-13T03:33:59.028Z,71.40
2018-08-13T03:36:27.297Z,71.50
2018-08-13T03:38:55.641Z,73.30
2018-08-13T03:41:23.923Z,74.20
2018-08-13T03:43:52.154Z,74.50
2018-08-13T03:46:20.433Z,75.50
2018-08-13T03:48:48.672Z,74.80
2018-08-13T03:51:17.614Z,75.90
2018-08-13T03:53:45.964Z,76.50
2018-08-13T03:56:14.217Z,76.80
2018-08-13T03:58:42.467Z,77.90
2018-08-13T04:01:10.690Z,78.30
2018-08-13T04:03:38.912Z,77.20
2018-08-13T04:06:07.214Z,79.20
2018-08-13T04:08:35.479Z,78.10
2018-08-13T04:11:03.752Z,78.10
2018-08-13T04:13:32.002Z,79.80
2018-08-13T04:16:00.245Z,80.20
2018-08-13T04:18:28.551Z,80.70
2018-08-13T04:20:56.789Z,81.50
2018-08-13T04:23:25.020Z,80.70
2018-08-13T04:25:53.241Z,80.50
2018-08-13T04:28:21.514Z,81.40
2018-08-13T04:30:49.761Z,81.10
2018-08-13T04:33:18.055Z,81.70
2018-08-13T04:35:46.322Z,80.70
2018-08-13T04:38:14.529Z,80.90
2018-08-13T04:40:42.780Z,81.00
2018-08-13T04:43:11.003Z,81.70
2018-08-13T04:45:39.200Z,80.70
2018-08-13T04:48:07.456Z,80.00
2018-08-13T04:50:35.680Z,79.70
2018-08-13T04:53:03.934Z,79.70
2018-08-13T04:55:32.145Z,79.90
2018-08-13T04:58:00.436Z,79.20
2018-08-13T05:00:28.727Z,80.10
2018-08-13T05:02:56.978Z,80.10
2018-08-13T05:05:25.232Z,80.40
2018-08-13T05:07:53.545Z,80.80
2018-08-13T05:10:21.821Z,79.90
2018-08-13T05:12:50.134Z,80.00
2018-08-13T05:15:18.357Z,77.60
2018-08-13T05:17:46.632Z,80.50
2018-08-13T05:20:14.912Z,78.80
2018-08-13T05:22:43.167Z,81.40
2018-08-13T05:25:11.477Z,77.10
2018-08-13T05:27:40.568Z,75.40
2018-08-13T05:30:09.962Z,75.00
2018-08-13T05:32:38.187Z,74.20
2018-08-13T05:35:06.808Z,73.00
2018-08-13T05:37:35.136Z,72.30
2018-08-13T05:40:03.438Z,72.00
2018-08-13T05:42:31.741Z,72.00
2018-08-13T05:45:00.001Z,72.10
2018-08-13T05:47:28.259Z,72.10
2018-08-13T05:49:56.488Z,72.10
2018-08-13T05:52:24.746Z,72.00
2018-08-13T05:54:53.043Z,71.70
2018-08-13T05:57:21.369Z,71.90
2018-08-13T05:59:49.639Z,72.20
2018-08-13T06:02:17.964Z,72.10
2018-08-13T06:04:46.455Z,72.40
2018-08-13T06:07:14.741Z,72.40
2018-08-13T06:09:43.012Z,72.70
2018-08-13T06:12:11.326Z,73.00
2018-08-13T06:14:39.642Z,73.40
2018-08-13T06:17:07.896Z,73.90
2018-08-13T06:19:36.137Z,73.90
2018-08-13T06:22:04.505Z,74.10
2018-08-13T06:24:32.749Z,74.60
2018-08-13T06:27:00.983Z,75.20
2018-08-13T06:29:29.275Z,77.80
2018-08-13T06:31:57.543Z,77.50
2018-08-13T06:34:25.822Z,77.90
2018-08-13T06:36:54.057Z,78.10
2018-08-13T06:39:22.268Z,80.30
2018-08-13T06:41:50.464Z,80.30
2018-08-13T06:44:18.830Z,80.80
2018-08-13T06:46:47.110Z,84.90
2018-08-13T06:49:15.385Z,86.80
2018-08-13T06:51:43.693Z,88.80
2018-08-13T06:54:12.038Z,89.40
2018-08-13T06:56:40.438Z,90.00
2018-08-13T06:59:08.733Z,91.00
2018-08-13T07:01:37.062Z,91.40
2018-08-13T07:04:05.367Z,92.80
2018-08-13T07:06:33.646Z,94.70
2018-08-13T07:09:02.131Z,95.50
2018-08-13T07:11:30.420Z,96.80
2018-08-13T07:13:58.658Z,96.70
2018-08-13T07:16:26.918Z,98.50
2018-08-13T07:18:55.140Z,99.90
2018-08-13T07:21:23.390Z,99.90
2018-08-13T07:23:51.760Z,99.90
2018-08-13T07:26:20.049Z,99.90
2018-08-13T07:28:48.244Z,99.90
2018-08-13T07:31:16.493Z,99.90
2018-08-13T07:33:44.808Z,99.90
2018-08-13T07:36:13.028Z,99.90
2018-08-13T07:38:41.284Z,99.90
2018-08-13T07:41:09.529Z,99.90
2018-08-13T07:43:37.785Z,99.90
2018-08-13T07:46:06.076Z,99.90
2018-08-13T07:48:34.425Z,99.90
2018-08-13T07:51:02.635Z,99.90
2018-08-13T07:53:30.915Z,99.90
2018-08-13T07:55:59.232Z,99.90
2018-08-13T07:58:27.785Z,99.90
2018-08-13T08:00:56.089Z,99.90
2018-08-13T08:03:24.313Z,99.90
2018-08-13T08:05:52.597Z,99.90
2018-08-13T08:08:20.821Z,99.90
2018-08-13T08:10:49.476Z,99.90
2018-08-13T08:13:17.720Z,99.90
2018-08-13T08:15:45.952Z,99.90
2018-08-13T08:18:14.172Z,99.90
2018-08-13T08:20:42.420Z,99.80
2018-08-13T08:23:10.869Z,99.40
2018-08-13T08:25:40.060Z,98.50
2018-08-13T08:28:08.369Z,97.80
2018-08-13T08:30:36.620Z,99.60
2018-08-13T08:33:05.729Z,99.40
2018-08-13T08:35:35.260Z,99.90
2018-08-13T08:38:03.565Z,99.90
2018-08-13T08:40:31.914Z,99.90
2018-08-13T08:43:00.216Z,99.90
2018-08-13T08:45:28.474Z,99.90
2018-08-13T08:47:57.267Z,99.90
2018-08-13T08:50:26.203Z,99.90
2018-08-13T08:52:54.398Z,99.90
2018-08-13T08:55:23.062Z,99.90
2018-08-13T08:57:51.364Z,99.90
2018-08-13T09:00:21.974Z,99.90
2018-08-13T09:02:50.272Z,99.90
2018-08-13T09:05:18.504Z,99.90
2018-08-13T09:07:47.095Z,99.90
2018-08-13T09:10:15.385Z,99.90
2018-08-13T09:12:43.564Z,99.90
2018-08-13T09:15:14.617Z,99.90
2018-08-13T09:17:54.616Z,99.90
2018-08-13T09:20:34.257Z,99.90
2018-08-13T09:23:13.806Z,99.90
2018-08-13T09:25:53.140Z,99.90
2018-08-13T09:28:32.834Z,99.90
2018-08-13T09:32:14.707Z,99.90
2018-08-13T09:34:49.595Z,99.90
2018-08-13T09:37:17.845Z,99.90
2018-08-13T09:39:46.069Z,99.90
2018-08-13T09:42:14.411Z,99.90
2018-08-13T09:44:42.651Z,99.90
2018-08-13T09:47:10.933Z,99.90
2018-08-13T09:49:39.227Z,99.90
2018-08-13T09:52:07.623Z,99.10
2018-08-13T09:54:35.973Z,98.60
2018-08-13T09:57:04.199Z,97.40
2018-08-13T09:59:32.642Z,98.60
2018-08-13T10:02:00.890Z,96.60
2018-08-13T10:04:29.108Z,94.00
2018-08-13T10:06:57.464Z,92.30
2018-08-13T10:09:25.757Z,90.90
2018-08-13T10:11:54.023Z,85.10
2018-08-13T10:14:22.253Z,76.10
2018-08-13T10:16:50.555Z,75.50
2018-08-13T10:19:18.720Z,68.30
2018-08-13T10:21:47.037Z,64.30
2018-08-13T10:24:15.249Z,64.90
2018-08-13T10:26:43.504Z,64.70
2018-08-13T10:29:11.793Z,66.30
2018-08-13T10:31:40.068Z,67.20
2018-08-13T10:34:08.304Z,66.70
2018-08-13T10:36:36.589Z,68.60
2018-08-13T10:39:07.320Z,68.30
2018-08-13T10:41:35.537Z,69.70
2018-08-13T10:44:04.662Z,71.20
2018-08-13T10:46:32.876Z,70.70
2018-08-13T10:49:01.852Z,71.40
2018-08-13T10:51:30.144Z,73.50
2018-08-13T10:53:58.472Z,74.20
2018-08-13T10:56:26.733Z,73.30
2018-08-13T10:58:54.992Z,73.30
2018-08-13T11:01:23.387Z,72.20
2018-08-13T11:03:51.634Z,70.50
2018-08-13T11:06:19.981Z,69.80
2018-08-13T11:08:48.324Z,70.20
2018-08-13T11:11:16.533Z,69.60
2018-08-13T11:13:44.823Z,74.00
2018-08-13T11:16:13.113Z,75.20
2018-08-13T11:18:41.369Z,76.90
2018-08-13T11:21:09.692Z,77.70
2018-08-13T11:23:37.928Z,77.40
2018-08-13T11:26:06.249Z,77.80
2018-08-13T11:28:34.618Z,79.40
2018-08-13T11:31:02.871Z,79.60
2018-08-13T11:33:31.104Z,79.20
2018-08-13T11:35:59.349Z,79.60
2018-08-13T11:38:27.909Z,80.40
2018-08-13T11:40:56.160Z,80.70
2018-08-13T11:43:24.538Z,81.80
2018-08-13T11:45:52.817Z,85.50
2018-08-13T11:48:21.113Z,87.60
2018-08-13T11:50:49.425Z,89.50
2018-08-13T11:53:17.676Z,90.20
2018-08-13T11:55:45.936Z,90.80
2018-08-13T11:58:14.203Z,91.60
2018-08-13T12:00:42.454Z,92.80
2018-08-13T12:03:10.725Z,95.30
2018-08-13T12:05:38.944Z,95.90
2018-08-13T12:08:07.221Z,97.30
2018-08-13T12:10:35.541Z,98.00
2018-08-13T12:13:03.818Z,98.50
2018-08-13T12:15:32.100Z,98.30
2018-08-13T12:18:00.403Z,99.30
2018-08-13T12:20:29.052Z,99.90
2018-08-13T12:22:57.377Z,99.90
2018-08-13T12:25:27.087Z,99.90
2018-08-13T12:27:55.620Z,99.90
2018-08-13T12:30:23.885Z,99.90
2018-08-13T12:32:53.883Z,99.90
2018-08-13T12:35:23.767Z,99.90
2018-08-13T12:37:54.507Z,99.10
2018-08-13T12:40:22.778Z,99.00
2018-08-13T12:42:51.016Z,98.80
2018-08-13T12:45:19.415Z,99.90
2018-08-13T12:47:47.808Z,99.90
2018-08-13T12:50:18.756Z,98.50
2018-08-13T12:52:48.250Z,98.60
2018-08-13T12:55:16.726Z,98.00
2018-08-13T12:57:44.988Z,97.70
2018-08-13T13:00:14.741Z,97.70
2018-08-13T13:02:43.148Z,98.50
2018-08-13T13:05:12.684Z,98.80
2018-08-13T13:07:41.011Z,99.90
2018-08-13T13:10:11.764Z,99.90
2018-08-13T13:12:40.536Z,99.90
2018-08-13T13:15:10.504Z,99.70
2018-08-13T13:17:39.549Z,99.30
2018-08-13T13:20:09.670Z,99.90
2018-08-13T13:22:37.921Z,99.70
2018-08-13T13:25:06.629Z,99.00
2018-08-13T13:27:35.088Z,98.90
2018-08-13T13:30:03.501Z,99.00
2018-08-13T13:32:31.758Z,98.80
2018-08-13T13:35:00.072Z,99.90
2018-08-13T13:37:28.372Z,99.90
2018-08-13T13:39:56.787Z,99.90
2018-08-13T13:42:25.033Z,99.90
2018-08-13T13:44:53.268Z,99.90
2018-08-13T13:47:21.502Z,99.90
2018-08-13T13:49:49.692Z,99.90
2018-08-13T13:52:17.999Z,99.90
2018-08-13T13:54:46.247Z,99.90
2018-08-13T13:57:14.594Z,99.90
2018-08-13T13:59:43.006Z,99.90
2018-08-13T14:02:11.278Z,99.90
2018-08-13T14:04:39.560Z,99.90
2018-08-13T14:07:07.825Z,99.90
2018-08-13T14:09:36.151Z,99.90
2018-08-13T14:12:04.458Z,99.90
2018-08-13T14:14:32.734Z,99.90
2018-08-13T14:17:01.112Z,99.90
2018-08-13T14:19:29.328Z,99.90
2018-08-13T14:21:58.007Z,99.90
2018-08-13T14:24:26.258Z,99.90
2018-08-13T14:26:54.478Z,99.90
2018-08-13T14:29:22.907Z,99.90
2018-08-13T14:31:51.165Z,99.90
2018-08-13T14:34:19.778Z,99.90
2018-08-13T14:36:47.993Z,99.90
2018-08-13T14:39:16.267Z,99.90
2018-08-13T14:41:44.545Z,99.90
2018-08-13T14:44:12.779Z,99.90
2018-08-13T14:46:40.992Z,99.90
2018-08-13T14:49:15.655Z,99.90
2018-08-13T14:51:43.925Z,98.70
2018-08-13T14:54:12.243Z,99.90
2018-08-13T14:56:40.542Z,97.90
2018-08-13T14:59:09.094Z,97.10
2018-08-13T15:01:37.377Z,96.00
2018-08-13T15:04:05.657Z,96.60
2018-08-13T15:06:33.993Z,97.20
2018-08-13T15:09:02.242Z,97.30
2018-08-13T15:11:39.222Z,97.30
2018-08-13T15:14:08.876Z,98.20
2018-08-13T15:16:37.142Z,99.00
2018-08-13T15:19:05.548Z,99.90
2018-08-13T15:21:33.783Z,99.90
2018-08-13T15:24:02.473Z,99.90
2018-08-13T15:26:30.804Z,99.90
2018-08-13T15:28:59.364Z,99.90
2018-08-13T15:31:27.680Z,99.90
2018-08-13T15:33:56.033Z,99.90
2018-08-13T15:36:24.331Z,99.90
2018-08-13T15:38:52.598Z,99.90
2018-08-13T15:41:20.846Z,99.90
2018-08-13T15:43:49.111Z,99.90
2018-08-13T15:46:17.337Z,99.90
2018-08-13T15:48:45.547Z,99.90
2018-08-13T15:51:13.795Z,99.90
2018-08-13T15:53:42.012Z,99.90
2018-08-13T15:56:10.317Z,99.90
2018-08-13T15:58:38.608Z,99.90
2018-08-13T16:01:06.868Z,99.90
2018-08-13T16:03:35.201Z,99.90
2018-08-13T16:06:03.637Z,99.90
2018-08-13T16:08:31.903Z,99.90
2018-08-13T16:11:00.206Z,99.90
2018-08-13T16:13:28.480Z,99.90
2018-08-13T16:15:56.774Z,99.90
2018-08-13T16:18:25.036Z,99.90
2018-08-13T16:20:53.281Z,99.90
2018-08-13T16:23:21.557Z,99.90
2018-08-13T16:25:49.816Z,99.90
2018-08-13T16:28:18.124Z,99.90
2018-08-13T16:30:46.381Z,99.90
2018-08-13T16:33:14.642Z,99.90
2018-08-13T16:35:42.926Z,99.90
2018-08-13T16:38:11.138Z,99.90
2018-08-13T16:40:39.391Z,99.90
2018-08-13T16:43:07.662Z,99.90
2018-08-13T16:45:35.942Z,99.90
2018-08-13T16:48:04.297Z,99.90
2018-08-13T16:50:33.645Z,99.90
2018-08-13T16:53:02.309Z,99.90
2018-08-13T16:55:31.481Z,99.90
2018-08-13T16:58:00.399Z,99.90
2018-08-13T17:00:29.895Z,99.90
2018-08-13T17:02:58.637Z,99.90
2018-08-13T17:05:27.290Z,99.90
2018-08-13T17:07:55.605Z,99.90
2018-08-13T17:10:25.206Z,99.90
2018-08-13T17:12:55.806Z,99.90
2018-08-13T17:15:24.698Z,99.90
2018-08-13T17:17:55.023Z,99.90
2018-08-13T17:20:35.252Z,99.90
2018-08-13T17:23:03.562Z,99.90
2018-08-13T17:25:33.613Z,99.90
2018-08-13T17:28:01.879Z,99.90
2018-08-13T17:30:30.101Z,99.90
2018-08-13T17:32:59.689Z,99.90
2018-08-13T17:35:29.836Z,99.90
2018-08-13T17:37:58.647Z,99.90
2018-08-13T17:40:27.108Z,99.90
2018-08-13T17:42:56.020Z,99.90
2018-08-13T17:45:24.699Z,99.90
2018-08-13T17:47:52.994Z,99.90
2018-08-13T17:50:21.750Z,99.90
2018-08-13T17:52:50.183Z,99.90
2018-08-13T17:55:18.720Z,99.90
2018-08-13T17:57:47.080Z,99.90
2018-08-13T18:00:17.569Z,99.90
2018-08-13T18:02:45.856Z,99.90
2018-08-13T18:05:16.554Z,99.90
2018-08-13T18:07:44.925Z,99.90
2018-08-13T18:10:16.150Z,99.90
2018-08-13T18:12:44.398Z,99.90
2018-08-13T18:15:14.666Z,99.90
2018-08-13T18:17:43.428Z,99.90
2018-08-13T18:20:12.055Z,99.90
2018-08-13T18:22:40.398Z,99.90
2018-08-13T18:25:10.401Z,99.90
2018-08-13T18:27:39.272Z,99.90
2018-08-13T18:30:09.804Z,99.90
2018-08-13T18:32:38.901Z,99.90
2018-08-13T18:35:07.200Z,99.90
2018-08-13T18:37:35.821Z,99.90
2018-08-13T18:40:05.595Z,99.90
2018-08-13T18:42:33.883Z,99.90
2018-08-13T18:45:02.244Z,99.90
2018-08-13T18:47:30.523Z,99.90
2018-08-13T18:49:58.758Z,99.90
2018-08-13T18:52:26.991Z,99.90
2018-08-13T18:54:55.425Z,99.90
2018-08-13T18:57:24.568Z,99.90
2018-08-13T18:59:52.833Z,99.90
2018-08-13T19:02:21.081Z,99.90
2018-08-13T19:04:49.448Z,99.90
2018-08-13T19:07:18.587Z,99.90
2018-08-13T19:09:47.176Z,99.90
2018-08-13T19:12:15.641Z,99.90
2018-08-13T19:14:44.019Z,99.90
2018-08-13T19:17:12.334Z,99.90
2018-08-13T19:19:40.582Z,99.90
2018-08-13T19:22:08.848Z,99.90
2018-08-13T19:24:37.247Z,99.90
2018-08-13T19:27:05.606Z,99.90
2018-08-13T19:29:33.867Z,99.90
2018-08-13T19:32:02.186Z,99.90
2018-08-13T19:34:30.550Z,99.90
2018-08-13T19:36:58.920Z,99.90
2018-08-13T19:39:27.275Z,99.90
2018-08-13T19:41:55.503Z,99.90
2018-08-13T19:44:23.835Z,99.90
2018-08-13T19:46:52.265Z,99.90
2018-08-13T19:49:20.546Z,99.90
2018-08-13T19:51:48.789Z,99.90
2018-08-13T19:54:17.059Z,99.90
2018-08-13T19:56:45.279Z,99.90
2018-08-13T19:59:13.530Z,99.90
2018-08-13T20:01:41.762Z,99.90
2018-08-13T20:04:10.036Z,99.90
2018-08-13T20:06:38.238Z,99.90
2018-08-13T20:09:08.225Z,99.90
2018-08-13T20:11:36.516Z,99.90
2018-08-13T20:14:04.824Z,99.90
2018-08-13T20:16:33.136Z,99.90
2018-08-13T20:19:01.565Z,99.90
2018-08-13T20:21:29.823Z,99.90
2018-08-13T20:23:58.259Z,99.90
2018-08-13T20:26:26.594Z,99.90
2018-08-13T20:28:55.874Z,99.90
2018-08-13T20:31:24.333Z,99.90
2018-08-13T20:33:52.710Z,99.90
2018-08-13T20:36:21.014Z,99.90
2018-08-13T20:38:49.270Z,99.90
2018-08-13T20:41:17.572Z,99.90
2018-08-13T20:43:45.794Z,99.90
2018-08-13T20:46:14.006Z,99.90
2018-08-13T20:48:42.243Z,99.90
2018-08-13T20:51:10.492Z,99.90
2018-08-13T20:53:38.796Z,99.90
2018-08-13T20:58:37.244Z,99.90
2018-08-13T21:01:05.485Z,99.90
2018-08-13T21:03:33.785Z,99.90
2018-08-13T21:06:02.012Z,99.90
2018-08-13T21:08:30.258Z,99.90
2018-08-13T21:10:58.741Z,99.90
2018-08-13T21:13:27.001Z,99.90
2018-08-13T21:15:55.291Z,99.90
2018-08-13T21:18:23.628Z,99.90
2018-08-13T21:20:51.931Z,99.90
2018-08-13T21:23:20.126Z,99.90
2018-08-13T21:25:48.379Z,99.90
2018-08-13T21:28:16.655Z,99.90
2018-08-13T21:30:44.884Z,99.90
2018-08-13T21:33:13.198Z,99.90
2018-08-13T21:35:41.485Z,99.90
2018-08-13T21:38:11.262Z,99.90
2018-08-13T21:40:39.476Z,99.90
2018-08-13T21:43:07.789Z,99.90
2018-08-13T21:45:35.994Z,99.90
2018-08-13T21:48:04.224Z,99.90
2018-08-13T21:50:32.437Z,99.90
2018-08-13T21:53:00.943Z,99.90
2018-08-13T21:55:29.440Z,99.90
2018-08-13T21:57:57.664Z,99.90
2018-08-13T22:00:29.688Z,99.90
2018-08-13T22:03:01.323Z,99.90
2018-08-13T22:05:29.598Z,99.90
2018-08-13T22:07:57.890Z,99.90
2018-08-13T22:10:26.296Z,99.90
2018-08-13T22:12:54.571Z,99.90
2018-08-13T22:15:29.908Z,99.90
2018-08-13T22:17:59.522Z,99.90
2018-08-13T22:20:28.434Z,99.90
2018-08-13T22:22:57.628Z,99.90
2018-08-13T22:25:40.242Z,99.90
2018-08-13T22:28:09.557Z,99.90
2018-08-13T22:30:37.894Z,99.90
2018-08-13T22:33:07.142Z,99.90
2018-08-13T22:35:35.356Z,99.90
2018-08-13T22:38:03.571Z,99.90
2018-08-13T22:40:31.839Z,99.90
2018-08-13T22:43:00.065Z,99.90
2018-08-13T22:45:28.348Z,99.90
2018-08-13T22:47:56.602Z,99.90
2018-08-13T22:50:24.801Z,99.90
2018-08-13T22:52:53.011Z,99.90
2018-08-13T22:55:21.235Z,99.90
2018-08-13T22:57:49.564Z,99.90
2018-08-13T23:00:19.069Z,99.90
2018-08-13T23:02:48.215Z,99.90
2018-08-13T23:05:20.032Z,99.90
2018-08-13T23:07:48.321Z,99.90
2018-08-13T23:10:18.653Z,99.90
2018-08-13T23:12:48.106Z,99.90
2018-08-13T23:15:17.036Z,99.90
2018-08-13T23:17:45.478Z,99.90
2018-08-13T23:20:18.997Z,99.90
2018-08-13T23:22:49.809Z,99.90
2018-08-13T23:25:18.498Z,99.90
2018-08-13T23:27:47.525Z,99.90
2018-08-13T23:30:16.399Z,99.90
2018-08-13T23:32:46.200Z,99.90
2018-08-13T23:35:15.128Z,99.90
2018-08-13T23:37:43.438Z,99.90
2018-08-13T23:40:11.663Z,99.90
2018-08-13T23:42:39.848Z,99.90
2018-08-13T23:45:11.897Z,99.90
2018-08-13T23:47:40.110Z,99.90
2018-08-13T23:50:10.080Z,99.90
2018-08-13T23:52:39.117Z,99.90
2018-08-13T23:55:10.405Z,99.90
2018-08-13T23:57:38.626Z,99.90
